createdAt,value
2022-12-23T00:02:12.941Z,63.91
2022-12-23T00:07:14.500Z,63.79
2022-12-23T00:12:34.849Z,63.60
2022-12-23T00:17:40.144Z,63.91
2022-12-23T00:23:00.378Z,63.71
2022-12-23T00:28:01.718Z,63.90
2022-12-23T00:33:03.209Z,63.84
2022-12-23T00:38:04.592Z,63.71
2022-12-23T00:43:05.886Z,63.81
2022-12-23T00:48:26.171Z,63.71
2022-12-23T00:53:27.481Z,63.44
2022-12-23T00:58:31.215Z,62.85
2022-12-23T01:03:51.155Z,62.72
2022-12-23T01:08:52.437Z,62.65
2022-12-23T01:13:53.987Z,62.46
2022-12-23T01:18:56.411Z,62.22
2022-12-23T01:23:57.628Z,62.41
2022-12-23T01:28:59.639Z,62.19
2022-12-23T01:34:00.964Z,62.36
2022-12-23T01:39:02.501Z,62.48
2022-12-23T01:44:42.419Z,62.54
2022-12-23T01:49:46.129Z,62.65
2022-12-23T01:54:47.716Z,62.63
2022-12-23T02:00:08.117Z,62.61
2022-12-23T02:05:09.397Z,62.81
2022-12-23T02:10:11.012Z,62.61
2022-12-23T02:15:36.841Z,62.49
2022-12-23T02:21:15.803Z,62.35
2022-12-23T02:26:54.938Z,62.37
2022-12-23T02:32:07.372Z,61.80
2022-12-23T02:37:30.001Z,61.41
2022-12-23T02:42:37.965Z,61.50
2022-12-23T02:47:54.337Z,61.43
2022-12-23T02:53:01.121Z,60.94
2022-12-23T02:58:07.562Z,60.71
2022-12-23T03:03:09.892Z,60.66
2022-12-23T03:08:32.690Z,60.73
2022-12-23T03:14:12.166Z,61.00
2022-12-23T03:19:31.742Z,61.33
2022-12-23T03:24:57.803Z,61.48
2022-12-23T03:30:04.503Z,61.46
2022-12-23T03:35:09.558Z,61.32
2022-12-23T03:40:18.785Z,61.42
2022-12-23T03:45:40.452Z,61.57
2022-12-23T03:50:43.525Z,62.05
2022-12-23T03:55:51.368Z,62.41
2022-12-23T04:01:01.096Z,62.68
2022-12-23T04:06:06.740Z,62.87
2022-12-23T04:11:08.141Z,62.71
2022-12-23T04:16:09.886Z,63.01
2022-12-23T04:21:11.163Z,62.63
2022-12-23T04:26:12.452Z,62.59
2022-12-23T04:31:13.866Z,62.88
2022-12-23T04:36:15.272Z,62.86
2022-12-23T04:41:16.549Z,62.31
2022-12-23T04:46:17.834Z,62.46
2022-12-23T04:51:19.227Z,62.54
2022-12-23T04:56:20.863Z,62.43
2022-12-23T05:01:22.219Z,62.16
2022-12-23T05:06:23.837Z,62.13
2022-12-23T05:11:25.400Z,62.50
2022-12-23T05:16:26.714Z,62.31
2022-12-23T05:21:28.182Z,61.36
2022-12-23T05:26:29.506Z,60.96
2022-12-23T05:31:31.727Z,60.55
2022-12-23T05:36:33.217Z,60.67
2022-12-23T05:41:34.471Z,60.80
2022-12-23T05:46:35.905Z,60.77
2022-12-23T05:51:37.203Z,60.79
2022-12-23T05:56:38.446Z,60.76
2022-12-23T06:01:39.871Z,61.06
2022-12-23T06:06:41.528Z,61.33
2022-12-23T06:11:42.810Z,61.58
2022-12-23T06:16:44.272Z,61.65
2022-12-23T06:21:45.507Z,61.85
2022-12-23T06:26:48.792Z,61.91
2022-12-23T06:31:53.418Z,61.89
2022-12-23T06:36:54.984Z,62.29
2022-12-23T06:41:56.250Z,62.41
2022-12-23T06:46:57.637Z,62.87
2022-12-23T06:51:58.971Z,63.09
2022-12-23T06:57:00.539Z,63.20
2022-12-23T07:02:02.920Z,62.93
2022-12-23T07:07:04.521Z,62.72
2022-12-23T07:12:06.015Z,62.46
2022-12-23T07:17:07.351Z,62.64
2022-12-23T07:22:09.726Z,62.65
2022-12-23T07:27:11.236Z,62.92
2022-12-23T07:32:12.607Z,63.13
2022-12-23T07:37:13.898Z,62.88
2022-12-23T07:47:36.409Z,62.42
2022-12-23T07:52:37.871Z,62.28
2022-12-23T07:57:39.981Z,62.02
2022-12-23T08:02:41.903Z,61.91
2022-12-23T08:07:49.020Z,61.75
2022-12-23T08:12:50.364Z,61.52
2022-12-23T08:17:51.588Z,61.09
2022-12-23T08:22:54.221Z,61.24
2022-12-23T08:27:55.616Z,61.24
2022-12-23T08:32:56.969Z,60.94
2022-12-23T08:37:58.244Z,60.68
2022-12-23T08:42:59.626Z,60.42
2022-12-23T08:48:02.583Z,60.50
2022-12-23T08:53:04.836Z,60.59
2022-12-23T08:58:07.502Z,60.70
2022-12-23T09:03:08.952Z,61.13
2022-12-23T09:08:10.492Z,61.01
2022-12-23T09:13:19.966Z,60.80
2022-12-23T09:18:26.388Z,60.72
2022-12-23T09:23:27.706Z,60.46
2022-12-23T09:28:28.968Z,60.80
2022-12-23T09:33:30.688Z,60.66
2022-12-23T09:38:33.659Z,60.48
2022-12-23T09:43:38.005Z,60.45
2022-12-23T09:48:46.952Z,60.30
2022-12-23T09:54:16.823Z,60.47
2022-12-23T09:59:27.340Z,60.30
2022-12-23T10:05:06.620Z,60.00
2022-12-23T10:10:24.888Z,60.51
2022-12-23T10:15:46.994Z,60.61
2022-12-23T10:21:06.717Z,60.89
2022-12-23T10:26:38.611Z,60.74
2022-12-23T10:32:30.971Z,60.70
2022-12-23T10:37:32.271Z,60.98
2022-12-23T10:42:38.031Z,60.74
2022-12-23T10:47:55.082Z,61.01
2022-12-23T10:53:00.836Z,61.60
2022-12-23T10:58:12.563Z,61.68
2022-12-23T11:03:26.662Z,61.51
2022-12-23T11:08:30.512Z,61.23
2022-12-23T11:13:41.201Z,61.10
2022-12-23T11:19:03.758Z,61.00
2022-12-23T11:24:09.353Z,60.65
2022-12-23T11:29:19.425Z,60.26
2022-12-23T11:34:27.911Z,60.49
2022-12-23T11:39:35.420Z,61.16
2022-12-23T11:44:44.604Z,61.24
2022-12-23T11:50:27.074Z,61.07
2022-12-23T11:55:32.157Z,59.98
2022-12-23T12:00:42.214Z,57.73
2022-12-23T12:05:55.499Z,58.43
2022-12-23T12:11:06.184Z,66.12
2022-12-23T12:16:29.767Z,65.93
2022-12-23T12:21:37.031Z,63.52
2022-12-23T12:26:41.945Z,61.86
2022-12-23T12:31:48.335Z,60.43
2022-12-23T12:37:12.996Z,59.69
2022-12-23T12:42:24.058Z,57.02
2022-12-23T12:47:53.923Z,59.51
2022-12-23T12:53:05.171Z,66.12
2022-12-23T12:58:18.515Z,66.25
2022-12-23T13:03:57.875Z,64.05
2022-12-23T13:09:08.443Z,62.49
2022-12-23T13:14:26.501Z,61.13
2022-12-23T13:19:46.653Z,60.35
2022-12-23T13:24:50.655Z,59.99
2022-12-23T13:30:01.260Z,59.62
2022-12-23T13:35:34.554Z,57.38
2022-12-23T13:41:03.710Z,56.69
2022-12-23T13:46:15.331Z,63.53
2022-12-23T13:51:29.977Z,69.84
2022-12-23T13:57:00.299Z,67.47
2022-12-23T14:02:01.707Z,64.64
2022-12-23T14:07:23.604Z,63.12
2022-12-23T14:12:37.594Z,62.56
2022-12-23T14:17:50.416Z,61.65
2022-12-23T14:23:20.675Z,61.18
2022-12-23T14:28:59.688Z,60.41
2022-12-23T14:34:31.361Z,59.77
2022-12-23T14:39:33.217Z,58.48
2022-12-23T14:44:34.488Z,57.16
2022-12-23T14:49:41.332Z,63.06
2022-12-23T14:55:00.192Z,67.19
2022-12-23T15:00:05.912Z,65.29
2022-12-23T15:05:07.926Z,63.58
2022-12-23T15:10:19.420Z,62.43
2022-12-23T15:15:27.519Z,61.70
2022-12-23T15:20:28.833Z,61.15
2022-12-23T15:25:38.593Z,60.64
2022-12-23T15:30:48.759Z,60.30
2022-12-23T15:35:50.914Z,60.26
2022-12-23T15:41:01.634Z,60.15
2022-12-23T15:46:13.463Z,60.33
2022-12-23T15:51:58.282Z,60.37
2022-12-23T15:56:53.559Z,60.34
2022-12-23T16:01:55.475Z,60.13
2022-12-23T16:06:57.295Z,60.07
2022-12-23T16:12:21.583Z,59.95
2022-12-23T16:17:43.258Z,60.10
2022-12-23T16:22:49.636Z,60.24
2022-12-23T16:27:58.087Z,59.87
2022-12-23T16:33:19.950Z,59.82
2022-12-23T16:38:25.773Z,60.19
2022-12-23T16:43:27.062Z,59.95
2022-12-23T16:48:47.061Z,57.55
2022-12-23T16:53:50.233Z,58.34
2022-12-23T16:58:51.750Z,65.83
2022-12-23T17:03:55.018Z,67.01
2022-12-23T17:08:56.391Z,65.45
2022-12-23T17:14:03.897Z,64.70
2022-12-23T17:19:06.543Z,62.31
2022-12-23T17:24:26.918Z,59.94
2022-12-23T17:29:28.471Z,55.69
2022-12-23T17:34:29.722Z,59.15
2022-12-23T17:39:30.983Z,65.67
2022-12-23T17:44:32.457Z,67.04
2022-12-23T17:49:33.763Z,65.60
2022-12-23T17:54:35.501Z,64.29
2022-12-23T17:59:36.948Z,63.12
2022-12-23T18:04:38.487Z,62.25
2022-12-23T18:09:39.926Z,62.09
2022-12-23T18:14:41.542Z,61.14
2022-12-23T18:19:42.784Z,56.59
2022-12-23T18:24:45.151Z,58.11
2022-12-23T18:29:47.947Z,65.40
2022-12-23T18:34:49.531Z,67.30
2022-12-23T18:39:50.827Z,65.54
2022-12-23T18:44:52.163Z,64.14
2022-12-23T18:49:54.555Z,63.60
2022-12-23T18:54:55.794Z,62.78
2022-12-23T18:59:57.150Z,62.25
2022-12-23T19:05:00.114Z,62.37
2022-12-23T19:10:04.594Z,62.71
2022-12-23T19:15:06.743Z,62.19
2022-12-23T19:20:11.787Z,62.32
2022-12-23T19:25:18.775Z,62.46
2022-12-23T19:30:20.378Z,62.56
2022-12-23T19:35:21.955Z,62.39
2022-12-23T19:40:23.227Z,62.14
2022-12-23T19:45:24.555Z,61.84
2022-12-23T19:50:27.081Z,61.75
2022-12-23T19:55:28.400Z,61.83
2022-12-23T20:00:29.627Z,61.88
2022-12-23T20:05:30.914Z,61.55
2022-12-23T20:10:32.131Z,61.51
2022-12-23T20:15:33.465Z,61.27
2022-12-23T20:20:36.146Z,60.96
2022-12-23T20:25:37.457Z,60.93
2022-12-23T20:30:39.177Z,60.89
2022-12-23T20:35:41.138Z,61.00
2022-12-23T20:40:42.421Z,60.96
2022-12-23T20:45:45.558Z,60.57
2022-12-23T20:50:47.987Z,60.21
2022-12-23T20:55:49.257Z,59.96
2022-12-23T21:00:51.600Z,60.04
2022-12-23T21:05:56.335Z,59.92
2022-12-23T21:10:57.735Z,59.87
2022-12-23T21:16:01.252Z,60.12
2022-12-23T21:21:04.502Z,59.76
2022-12-23T21:26:25.974Z,59.87
2022-12-23T21:31:29.698Z,56.08
2022-12-23T21:36:34.307Z,57.16
2022-12-23T21:41:38.017Z,60.06
2022-12-23T21:46:39.292Z,66.79
2022-12-23T21:51:41.725Z,67.39
2022-12-23T21:56:43.569Z,63.49
2022-12-23T22:01:45.316Z,61.49
2022-12-23T22:06:46.683Z,59.79
2022-12-23T22:11:48.143Z,55.81
2022-12-23T22:16:50.903Z,57.45
2022-12-23T22:21:52.290Z,59.65
2022-12-23T22:26:55.341Z,67.68
2022-12-23T22:31:56.625Z,65.81
2022-12-23T22:36:59.463Z,62.77
2022-12-23T22:42:00.736Z,60.14
2022-12-23T22:47:02.526Z,56.44
2022-12-23T22:52:04.091Z,57.50
2022-12-23T22:57:05.422Z,59.74
2022-12-23T23:02:06.704Z,68.63
2022-12-23T23:07:08.343Z,63.95
2022-12-23T23:12:09.562Z,59.86
2022-12-23T23:17:10.848Z,56.34
2022-12-23T23:22:12.178Z,57.65
2022-12-23T23:27:14.361Z,59.47
2022-12-23T23:32:15.703Z,66.57
2022-12-23T23:37:17.275Z,65.60
2022-12-23T23:42:18.599Z,62.62
2022-12-23T23:47:19.908Z,60.54
2022-12-23T23:52:21.211Z,56.43
2022-12-23T23:57:22.835Z,57.31
